TimeEDT,TemperatureF,Dew PointF,Humidity,Sea Level PressureIn,VisibilityMPH,Wind Direction,Wind SpeedMPH,Gust SpeedMPH,PrecipitationIn,Events,Conditions,WindDirDegrees,DateUTC
12:51 AM,55.9,54.0,93,30.19,9.0,Calm,Calm,-,N/A,,Scattered Clouds,0,2013-06-20 04:51:00
1:51 AM,55.0,53.1,93,30.20,5.0,Calm,Calm,-,N/A,,Partly Cloudy,0,2013-06-20 05:51:00
2:51 AM,54.0,52.0,93,30.19,5.0,Calm,Calm,-,N/A,,Clear,0,2013-06-20 06:51:00
3:29 AM,53.6,51.8,94,30.21,2.5,Calm,Calm,-,N/A,,Partly Cloudy,0,2013-06-20 07:29:00
3:41 AM,53.6,51.8,94,30.21,7.0,Calm,Calm,-,N/A,,Partly Cloudy,0,2013-06-20 07:41:00
3:48 AM,53.6,51.8,94,30.21,1.5,Calm,Calm,-,N/A,,Mostly Cloudy,0,2013-06-20 07:48:00
3:51 AM,54.0,52.0,93,30.20,0.8,Calm,Calm,-,N/A,,Mist,0,2013-06-20 07:51:00
4:13 AM,53.6,53.6,100,30.21,0.2,Calm,Calm,-,N/A,Fog,Fog,0,2013-06-20 08:13:00
4:23 AM,53.6,53.6,100,30.22,0.5,Calm,Calm,-,N/A,Fog,Fog,0,2013-06-20 08:23:00
4:47 AM,55.4,53.6,94,30.22,0.2,Calm,Calm,-,N/A,Fog,Fog,0,2013-06-20 08:47:00
4:51 AM,55.0,53.1,93,30.21,0.2,Calm,Calm,-,N/A,Fog,Fog,0,2013-06-20 08:51:00
4:59 AM,55.4,53.6,94,30.22,0.5,Calm,Calm,-,N/A,Fog,Fog,0,2013-06-20 08:59:00
5:12 AM,53.6,53.6,100,30.22,1.5,Calm,Calm,-,N/A,,Overcast,0,2013-06-20 09:12:00
5:39 AM,53.6,53.6,100,30.23,0.5,Calm,Calm,-,N/A,Fog,Fog,0,2013-06-20 09:39:00
5:51 AM,55.0,53.1,93,30.22,0.5,Calm,Calm,-,N/A,Fog,Fog,0,2013-06-20 09:51:00
6:07 AM,55.4,53.6,94,30.24,0.2,Calm,Calm,-,N/A,Fog,Fog,0,2013-06-20 10:07:00
6:51 AM,55.0,54.0,96,30.24,0.2,Calm,Calm,-,N/A,Fog,Fog,0,2013-06-20 10:51:00
7:51 AM,55.9,55.0,97,30.26,0.2,Calm,Calm,-,N/A,Fog,Fog,0,2013-06-20 11:51:00
8:13 AM,57.2,55.4,94,30.27,0.5,Calm,Calm,-,N/A,Fog,Fog,0,2013-06-20 12:13:00
8:40 AM,57.2,55.4,94,30.27,1.2,Calm,Calm,-,N/A,,Overcast,0,2013-06-20 12:40:00
8:51 AM,57.0,55.9,96,30.27,2.5,Calm,Calm,-,N/A,,Overcast,0,2013-06-20 12:51:00
9:02 AM,57.2,57.2,100,30.28,3.0,Calm,Calm,-,N/A,,Overcast,0,2013-06-20 13:02:00
9:36 AM,64.4,57.2,77,30.27,10.0,Calm,Calm,-,N/A,,Partly Cloudy,0,2013-06-20 13:36:00
9:51 AM,66.9,59.0,76,30.26,10.0,Calm,Calm,-,N/A,,Clear,0,2013-06-20 13:51:00
10:51 AM,72.0,61.0,68,30.26,10.0,NNW,4.6,-,N/A,,Mostly Cloudy,340,2013-06-20 14:51:00
11:51 AM,77.0,59.0,54,30.25,10.0,Calm,Calm,-,N/A,,Partly Cloudy,0,2013-06-20 15:51:00
12:51 PM,75.9,55.9,50,30.25,10.0,Calm,Calm,-,N/A,,Partly Cloudy,0,2013-06-20 16:51:00
1:51 PM,77.0,57.0,50,30.23,10.0,Calm,Calm,-,N/A,,Scattered Clouds,0,2013-06-20 17:51:00
2:51 PM,80.1,55.9,43,30.21,10.0,Calm,Calm,-,N/A,,Clear,0,2013-06-20 18:51:00
3:51 PM,81.0,55.9,42,30.21,10.0,Calm,Calm,-,N/A,,Clear,0,2013-06-20 19:51:00
4:51 PM,80.1,55.9,43,30.21,10.0,North,8.1,-,N/A,,Clear,350,2013-06-20 20:51:00
5:51 PM,79.0,57.0,47,30.21,10.0,NW,6.9,-,N/A,,Clear,320,2013-06-20 21:51:00
6:51 PM,75.9,55.0,48,30.24,10.0,NNW,6.9,-,N/A,,Clear,330,2013-06-20 22:51:00
7:51 PM,73.9,55.9,53,30.25,10.0,North,5.8,-,N/A,,Clear,350,2013-06-20 23:51:00
8:51 PM,66.9,59.0,76,30.25,10.0,Calm,Calm,-,N/A,,Clear,0,2013-06-21 00:51:00
9:51 PM,62.1,57.9,86,30.25,10.0,Calm,Calm,-,N/A,,Clear,0,2013-06-21 01:51:00
10:51 PM,61.0,57.0,87,30.26,10.0,Calm,Calm,-,N/A,,Clear,0,2013-06-21 02:51:00
11:51 PM,57.9,55.9,93,30.27,10.0,Calm,Calm,-,N/A,,Clear,0,2013-06-21 03:51:00